createdAt,value
2022-08-22T00:00:13.499Z,49.20
2022-08-22T00:02:59.131Z,46.50
2022-08-22T00:03:01.117Z,30.20
2022-08-22T00:03:03.384Z,27.20
2022-08-22T00:03:10.197Z,46.20
2022-08-22T00:03:17.327Z,48.10
2022-08-22T00:05:51.162Z,48.50
2022-08-22T00:08:28.880Z,49.40
2022-08-22T00:11:03.230Z,50.00
2022-08-22T00:13:38.406Z,49.60
2022-08-22T00:16:11.471Z,51.10
2022-08-22T00:18:46.652Z,51.00
2022-08-22T00:21:19.363Z,51.50
2022-08-22T00:23:52.564Z,52.40
2022-08-22T00:26:33.409Z,52.80
2022-08-22T00:29:03.620Z,54.10
2022-08-22T00:31:36.856Z,51.50
2022-08-22T00:34:10.176Z,51.50
2022-08-22T00:36:47.795Z,52.50
2022-08-22T00:39:20.537Z,51.80
2022-08-22T00:42:29.059Z,53.10
2022-08-22T00:45:34.543Z,53.70
2022-08-22T00:48:27.350Z,52.60
2022-08-22T00:51:34.645Z,50.80
2022-08-22T00:54:17.813Z,50.80
2022-08-22T00:57:16.400Z,51.00
2022-08-22T01:00:04.153Z,51.30
2022-08-22T01:02:47.121Z,50.60
2022-08-22T01:05:37.404Z,49.50
2022-08-22T01:08:16.400Z,49.40
2022-08-22T01:11:06.551Z,49.10
2022-08-22T01:13:55.973Z,48.80
2022-08-22T01:16:42.115Z,45.90
2022-08-22T01:19:50.673Z,46.10
2022-08-22T01:22:46.228Z,46.70
2022-08-22T01:25:58.608Z,49.10
2022-08-22T01:28:57.730Z,50.40
2022-08-22T01:31:59.926Z,52.70
2022-08-22T01:34:56.727Z,53.40
2022-08-22T01:37:44.945Z,53.50
2022-08-22T01:40:53.348Z,53.80
2022-08-22T01:43:58.894Z,53.10
2022-08-22T01:46:32.966Z,51.80
2022-08-22T01:49:11.138Z,50.60
2022-08-22T01:51:47.492Z,48.00
2022-08-22T01:54:25.790Z,49.00
2022-08-22T01:57:01.657Z,51.70
2022-08-22T01:59:34.788Z,52.40
2022-08-22T02:02:24.033Z,53.50
2022-08-22T02:05:02.072Z,53.80
2022-08-22T02:07:36.110Z,54.40
2022-08-22T02:10:14.007Z,53.90
2022-08-22T02:12:48.853Z,54.70
2022-08-22T02:15:23.192Z,53.30
2022-08-22T02:18:13.193Z,54.10
2022-08-22T02:20:58.258Z,53.60
2022-08-22T02:23:34.375Z,54.30
2022-08-22T02:26:10.679Z,53.50
2022-08-22T02:28:57.223Z,51.90
2022-08-22T02:31:40.931Z,51.50
2022-08-22T02:34:29.358Z,51.50
2022-08-22T02:37:05.801Z,52.90
2022-08-22T02:39:42.609Z,53.40
2022-08-22T02:42:19.647Z,53.30
2022-08-22T02:44:56.820Z,54.40
2022-08-22T02:47:33.771Z,55.00
2022-08-22T02:50:12.209Z,54.70
2022-08-22T02:52:53.537Z,55.20
2022-08-22T02:55:36.199Z,56.40
2022-08-22T02:58:14.454Z,56.10
2022-08-22T03:00:49.498Z,53.50
2022-08-22T03:03:23.095Z,52.90
2022-08-22T03:06:01.574Z,53.90
2022-08-22T03:08:33.250Z,55.00
2022-08-22T03:11:20.784Z,55.30
2022-08-22T03:13:57.767Z,56.50
2022-08-22T03:16:33.883Z,56.70
2022-08-22T03:19:07.672Z,57.00
2022-08-22T03:21:46.697Z,57.50
2022-08-22T03:24:23.741Z,56.20
2022-08-22T03:27:01.783Z,55.80
2022-08-22T03:29:35.655Z,53.40
2022-08-22T03:32:13.176Z,52.60
2022-08-22T03:34:57.474Z,55.30
2022-08-22T03:37:34.985Z,57.80
2022-08-22T03:40:08.654Z,59.70
2022-08-22T03:43:04.490Z,60.80
2022-08-22T03:46:01.330Z,60.80
2022-08-22T03:49:05.695Z,59.30
2022-08-22T03:51:43.875Z,57.20
2022-08-22T03:54:50.429Z,57.20
2022-08-22T03:58:13.610Z,57.90
2022-08-22T04:01:14.526Z,64.60
2022-08-22T04:04:20.537Z,63.20
2022-08-22T04:07:31.491Z,66.70
2022-08-22T04:10:32.576Z,65.90
2022-08-22T04:13:51.191Z,65.30
2022-08-22T04:16:58.779Z,64.50
2022-08-22T04:20:04.880Z,64.70
2022-08-22T04:23:00.469Z,65.30
2022-08-22T04:25:35.792Z,65.80
2022-08-22T04:28:16.568Z,66.00
2022-08-22T04:30:48.106Z,65.20
2022-08-22T04:33:23.923Z,64.50
2022-08-22T04:36:02.102Z,64.60
2022-08-22T04:38:35.034Z,67.00
2022-08-22T04:41:10.360Z,66.60
2022-08-22T04:43:42.197Z,66.50
2022-08-22T04:46:16.701Z,66.70
2022-08-22T04:48:54.796Z,66.60
2022-08-22T04:51:28.762Z,67.20
2022-08-22T04:54:21.584Z,67.70
2022-08-22T04:57:05.627Z,67.80
2022-08-22T04:59:34.604Z,67.30
2022-08-22T05:02:06.572Z,66.70
2022-08-22T05:04:39.793Z,64.70
2022-08-22T05:07:12.351Z,62.70
2022-08-22T05:09:56.354Z,60.80
2022-08-22T05:12:32.842Z,60.80
2022-08-22T05:15:03.896Z,59.50
2022-08-22T05:17:33.329Z,60.40
2022-08-22T05:20:07.925Z,60.40
2022-08-22T05:22:41.460Z,58.60
2022-08-22T05:25:14.995Z,58.00
2022-08-22T05:27:47.483Z,56.10
2022-08-22T05:30:21.876Z,55.60
2022-08-22T05:32:54.168Z,56.10
2022-08-22T05:35:31.776Z,53.00
2022-08-22T05:38:00.466Z,51.70
2022-08-22T05:40:31.080Z,52.50
2022-08-22T05:43:00.106Z,53.90
2022-08-22T05:45:29.618Z,55.10
2022-08-22T05:48:05.061Z,53.70
2022-08-22T05:50:39.113Z,51.90
2022-08-22T05:53:12.055Z,52.00
2022-08-22T05:55:50.928Z,54.00
2022-08-22T05:58:45.633Z,51.90
2022-08-22T06:01:23.538Z,51.30
2022-08-22T06:04:01.403Z,50.90
2022-08-22T06:06:34.431Z,52.00
2022-08-22T06:09:06.734Z,50.10
2022-08-22T06:11:41.607Z,49.70
2022-08-22T06:14:25.017Z,50.10
2022-08-22T06:16:59.916Z,67.20
2022-08-22T06:19:28.502Z,46.40
2022-08-22T06:21:58.541Z,64.50
2022-08-22T06:24:28.584Z,46.00
2022-08-22T06:27:06.011Z,46.20
2022-08-22T06:29:38.091Z,45.40
2022-08-22T06:32:12.546Z,46.40
2022-08-22T06:34:44.091Z,45.60
2022-08-22T06:37:20.974Z,43.00
2022-08-22T06:39:53.816Z,43.60
2022-08-22T06:42:25.288Z,56.50
2022-08-22T06:44:58.202Z,43.20
2022-08-22T06:47:30.191Z,55.60
2022-08-22T06:50:02.703Z,63.70
2022-08-22T06:52:36.049Z,76.90
2022-08-22T06:55:07.961Z,78.00
2022-08-22T06:57:41.128Z,76.40
2022-08-22T07:00:13.870Z,75.30
2022-08-22T07:02:44.980Z,73.60
2022-08-22T07:05:18.720Z,72.40
2022-08-22T07:07:48.751Z,73.80
2022-08-22T07:10:18.200Z,38.10
2022-08-22T07:12:49.612Z,34.70
2022-08-22T07:15:22.897Z,31.00
2022-08-22T07:17:59.167Z,33.10
2022-08-22T07:20:31.464Z,29.90
2022-08-22T07:23:05.711Z,29.90
2022-08-22T07:25:38.153Z,30.00
2022-08-22T07:28:21.123Z,29.70
2022-08-22T07:31:08.203Z,29.60
2022-08-22T07:33:43.966Z,28.80
2022-08-22T07:36:23.531Z,27.80
2022-08-22T07:39:11.145Z,28.20
2022-08-22T07:41:51.181Z,25.60
2022-08-22T07:44:22.162Z,25.50
2022-08-22T07:46:58.281Z,24.50
2022-08-22T07:49:31.016Z,25.80
2022-08-22T07:52:01.513Z,26.30
2022-08-22T07:54:39.129Z,25.40
2022-08-22T07:57:10.718Z,24.40
2022-08-22T07:59:44.606Z,23.50
2022-08-22T08:02:15.086Z,23.90
2022-08-22T08:04:44.259Z,22.70
2022-08-22T08:07:17.086Z,23.00
2022-08-22T08:09:51.345Z,22.40
2022-08-22T08:12:22.169Z,22.20
2022-08-22T08:14:56.711Z,21.60
2022-08-22T08:17:31.998Z,21.20
2022-08-22T08:20:04.249Z,20.70
2022-08-22T08:22:33.120Z,19.50
2022-08-22T08:25:03.608Z,20.30
2022-08-22T08:27:53.480Z,19.30
2022-08-22T08:30:25.171Z,19.70
2022-08-22T08:32:57.345Z,19.50
2022-08-22T08:36:02.569Z,17.90
2022-08-22T08:38:35.156Z,17.50
2022-08-22T08:41:39.711Z,16.90
2022-08-22T08:44:21.439Z,17.60
2022-08-22T08:47:15.418Z,17.20
2022-08-22T08:50:00.069Z,15.80
2022-08-22T08:52:59.432Z,14.90
2022-08-22T08:55:38.671Z,14.70
2022-08-22T08:58:33.617Z,13.30
2022-08-22T09:01:16.572Z,12.60
2022-08-22T09:04:14.975Z,11.50
2022-08-22T09:07:03.661Z,11.00
2022-08-22T09:09:46.646Z,9.80
2022-08-22T09:12:56.385Z,9.20
2022-08-22T09:15:58.592Z,9.30
2022-08-22T09:19:04.971Z,7.40
2022-08-22T09:22:04.073Z,7.50
2022-08-22T09:25:06.352Z,6.00
2022-08-22T09:27:38.594Z,7.20
2022-08-22T09:30:11.600Z,8.00
2022-08-22T09:32:52.124Z,6.90
2022-08-22T09:35:33.220Z,6.20
2022-08-22T09:38:28.281Z,7.00
2022-08-22T09:41:08.994Z,6.50
2022-08-22T09:43:45.149Z,6.80
2022-08-22T09:46:22.076Z,6.10
2022-08-22T09:49:10.456Z,5.70
2022-08-22T09:51:43.154Z,4.30
2022-08-22T09:54:32.864Z,5.70
2022-08-22T09:57:22.727Z,4.30
2022-08-22T10:00:15.413Z,4.90
2022-08-22T10:02:52.397Z,3.80
2022-08-22T10:05:40.710Z,4.50
2022-08-22T10:08:32.997Z,2.40
2022-08-22T10:11:18.922Z,2.90
2022-08-22T10:14:01.868Z,2.90
2022-08-22T10:16:56.228Z,1.70
2022-08-22T10:19:29.635Z,2.20
2022-08-22T10:22:20.271Z,2.20
2022-08-22T10:25:02.516Z,1.00
2022-08-22T10:27:48.035Z,1.00
2022-08-22T10:30:20.025Z,1.00
2022-08-22T10:32:53.069Z,1.00
2022-08-22T10:35:33.727Z,1.00
2022-08-22T10:38:12.278Z,1.00
2022-08-22T10:40:48.342Z,1.00
2022-08-22T10:43:29.072Z,1.00
2022-08-22T10:46:06.759Z,1.00
2022-08-22T10:48:59.545Z,1.00
2022-08-22T10:51:44.589Z,1.00
2022-08-22T10:54:40.064Z,1.00
2022-08-22T10:57:20.628Z,1.00
2022-08-22T11:00:00.831Z,1.00
2022-08-22T11:02:44.711Z,1.00
2022-08-22T11:05:40.860Z,1.00
2022-08-22T11:08:22.103Z,1.00
2022-08-22T11:11:17.585Z,1.00
2022-08-22T11:13:58.604Z,1.00
2022-08-22T11:16:43.118Z,1.00
2022-08-22T11:19:17.011Z,1.00
2022-08-22T11:21:51.783Z,1.00
2022-08-22T11:25:04.174Z,1.00
2022-08-22T11:27:43.362Z,1.00
2022-08-22T11:30:18.161Z,1.00
2022-08-22T11:33:32.443Z,1.00
2022-08-22T11:36:26.136Z,1.00
2022-08-22T11:39:06.515Z,1.00
2022-08-22T11:41:44.859Z,1.00
2022-08-22T11:44:27.532Z,1.00
2022-08-22T11:46:57.240Z,1.00
2022-08-22T11:49:45.615Z,1.00
2022-08-22T11:52:27.179Z,1.00
2022-08-22T11:55:16.707Z,1.00
2022-08-22T11:57:48.307Z,1.00
2022-08-22T12:00:41.231Z,1.00
2022-08-22T12:03:23.622Z,1.00
2022-08-22T12:05:56.975Z,1.00
2022-08-22T12:09:09.404Z,1.00
2022-08-22T12:11:45.746Z,1.00
2022-08-22T12:14:26.944Z,1.00
2022-08-22T12:17:10.343Z,1.00
2022-08-22T12:20:15.106Z,1.00
2022-08-22T12:23:14.884Z,1.00
2022-08-22T12:26:01.124Z,1.00
2022-08-22T12:28:36.879Z,1.00
2022-08-22T12:31:17.179Z,1.00
2022-08-22T12:34:06.498Z,1.00
2022-08-22T12:37:00.256Z,1.00
2022-08-22T12:39:59.493Z,1.00
2022-08-22T12:42:46.066Z,1.00
2022-08-22T12:45:36.153Z,1.00
2022-08-22T12:48:18.006Z,1.00
2022-08-22T12:50:53.278Z,1.00
2022-08-22T12:53:53.915Z,1.00
2022-08-22T12:56:31.736Z,1.00
2022-08-22T12:59:23.745Z,1.00
2022-08-22T13:01:56.513Z,1.00
2022-08-22T13:04:32.419Z,1.00
2022-08-22T13:07:23.381Z,1.00
2022-08-22T13:09:53.787Z,1.00
2022-08-22T13:12:26.771Z,1.00
2022-08-22T13:15:00.356Z,1.00
2022-08-22T13:17:29.125Z,1.00
2022-08-22T13:20:07.669Z,1.00
2022-08-22T13:22:45.695Z,1.00
2022-08-22T13:25:25.870Z,1.00
2022-08-22T13:27:56.760Z,1.00
2022-08-22T13:30:31.580Z,1.00
2022-08-22T13:33:08.759Z,1.00
2022-08-22T13:35:44.599Z,1.00
2022-08-22T13:38:25.732Z,1.00
2022-08-22T13:40:56.582Z,1.00
2022-08-22T13:43:29.648Z,1.00
2022-08-22T14:37:57.490Z,19.20
2022-08-22T14:40:31.375Z,11.90
2022-08-22T14:43:06.587Z,12.40
2022-08-22T14:45:39.942Z,19.10
2022-08-22T14:48:31.180Z,10.50
2022-08-22T15:49:37.777Z,16.70
2022-08-22T15:52:15.312Z,11.30
2022-08-22T15:55:18.663Z,15.40
2022-08-22T15:58:05.521Z,10.10
2022-08-22T16:00:44.795Z,10.50
2022-08-22T16:03:24.447Z,11.40
2022-08-22T16:05:55.940Z,10.90
2022-08-22T16:08:32.623Z,11.70
2022-08-22T16:11:32.277Z,11.70
2022-08-22T16:14:23.021Z,13.10
2022-08-22T16:17:01.227Z,12.70
2022-08-22T16:19:30.730Z,13.50
2022-08-22T16:22:16.049Z,13.90
2022-08-22T16:25:10.321Z,13.40
2022-08-22T16:27:56.125Z,13.40
2022-08-22T16:30:40.555Z,14.20
2022-08-22T16:33:18.334Z,14.50
2022-08-22T16:36:24.198Z,14.20
2022-08-22T16:38:56.635Z,14.90
2022-08-22T16:41:36.223Z,14.80
2022-08-22T16:44:41.494Z,15.90
2022-08-22T16:47:17.876Z,14.60
2022-08-22T16:50:01.583Z,15.30
2022-08-22T16:53:07.835Z,14.80
2022-08-22T16:55:42.074Z,14.90
2022-08-22T16:58:32.453Z,14.90
2022-08-22T17:01:17.790Z,15.50
2022-08-22T17:03:57.724Z,15.80
2022-08-22T17:06:38.395Z,16.70
2022-08-22T17:09:30.770Z,16.80
2022-08-22T17:12:06.934Z,17.00
2022-08-22T17:14:43.911Z,16.80
2022-08-22T17:17:27.880Z,18.10
2022-08-22T17:20:08.693Z,17.90
2022-08-22T17:22:44.298Z,19.70
2022-08-22T17:25:22.443Z,18.40
2022-08-22T17:28:01.384Z,18.60
2022-08-22T17:30:36.297Z,18.60
2022-08-22T17:33:16.114Z,19.10
2022-08-22T17:36:01.344Z,18.00
2022-08-22T17:38:43.552Z,18.00
2022-08-22T17:41:26.985Z,17.90
2022-08-22T17:44:06.466Z,17.80
2022-08-22T17:46:43.246Z,18.90
2022-08-22T17:49:23.099Z,20.50
2022-08-22T17:51:59.927Z,21.40
2022-08-22T17:54:34.516Z,23.80
2022-08-22T17:57:07.096Z,25.40
2022-08-22T17:59:46.383Z,26.80
2022-08-22T18:02:18.795Z,27.00
2022-08-22T18:04:52.370Z,26.60
2022-08-22T18:07:33.752Z,27.10
2022-08-22T18:10:09.056Z,27.80
2022-08-22T18:12:42.983Z,28.60
2022-08-22T18:15:21.038Z,30.20
2022-08-22T18:17:54.201Z,28.00
2022-08-22T18:20:27.051Z,28.10
2022-08-22T18:23:01.741Z,28.70
2022-08-22T18:25:36.784Z,29.00
2022-08-22T18:28:10.726Z,29.20
2022-08-22T18:30:51.808Z,28.40
2022-08-22T18:33:27.953Z,28.00
2022-08-22T18:36:06.020Z,28.30
2022-08-22T18:38:45.577Z,28.20
2022-08-22T18:41:23.280Z,28.40
2022-08-22T18:43:54.534Z,28.80
2022-08-22T18:46:41.057Z,29.30
2022-08-22T18:49:34.617Z,29.20
2022-08-22T18:52:22.861Z,28.40
2022-08-22T18:55:20.420Z,28.30
2022-08-22T18:58:02.463Z,29.30
2022-08-22T19:00:49.072Z,29.10
2022-08-22T19:03:35.983Z,30.60
2022-08-22T19:06:39.435Z,31.10
2022-08-22T19:09:47.081Z,31.90
2022-08-22T19:12:33.991Z,30.70
2022-08-22T19:15:22.428Z,30.70
2022-08-22T19:18:26.844Z,31.80
2022-08-22T19:21:47.885Z,30.70
2022-08-22T19:24:37.613Z,30.60
2022-08-22T19:27:30.880Z,28.50
2022-08-22T19:30:07.979Z,29.00
2022-08-22T19:33:03.034Z,31.50
2022-08-22T19:35:43.108Z,32.20
2022-08-22T19:38:12.874Z,32.70
2022-08-22T19:40:54.587Z,34.70
2022-08-22T19:43:35.678Z,35.00
2022-08-22T19:46:07.809Z,34.70
2022-08-22T19:48:45.590Z,35.10
2022-08-22T19:51:25.939Z,35.60
2022-08-22T19:54:07.670Z,35.20
2022-08-22T19:56:52.840Z,37.90
2022-08-22T19:59:27.647Z,38.90
2022-08-22T20:02:06.212Z,39.30
2022-08-22T20:04:49.885Z,39.30
2022-08-22T20:07:43.089Z,39.80
2022-08-22T20:10:23.638Z,40.30
2022-08-22T20:13:04.285Z,39.20
2022-08-22T20:15:36.208Z,40.10
2022-08-22T20:18:47.206Z,42.10
2022-08-22T20:20:59.762Z,42.40
2022-08-22T20:23:31.379Z,40.80
2022-08-22T20:25:59.674Z,41.20
2022-08-22T20:28:52.456Z,42.00
2022-08-22T20:31:23.475Z,43.50
2022-08-22T20:33:56.386Z,44.80
2022-08-22T20:36:28.326Z,46.50
2022-08-22T20:39:02.551Z,46.90
2022-08-22T20:41:34.946Z,47.00
2022-08-22T20:44:12.552Z,46.30
2022-08-22T20:46:57.567Z,45.50
2022-08-22T20:49:29.548Z,45.60
2022-08-22T20:52:00.357Z,44.70
2022-08-22T20:54:31.213Z,43.90
2022-08-22T20:57:01.397Z,43.30
2022-08-22T20:59:36.958Z,43.40
2022-08-22T21:02:15.124Z,44.60
2022-08-22T21:04:53.637Z,46.30
2022-08-22T21:07:27.777Z,49.00
2022-08-22T21:10:21.578Z,50.00
2022-08-22T21:13:04.920Z,49.80
2022-08-22T21:15:36.545Z,50.40
2022-08-22T21:18:05.533Z,51.00
2022-08-22T21:20:36.872Z,51.80
2022-08-22T21:23:08.825Z,53.80
2022-08-22T21:25:53.634Z,53.50
2022-08-22T21:28:33.673Z,53.60
2022-08-22T21:31:11.418Z,52.80
2022-08-22T21:33:48.067Z,53.10
2022-08-22T21:36:18.789Z,54.40
2022-08-22T21:38:50.517Z,59.60
2022-08-22T21:41:30.206Z,61.30
2022-08-22T21:44:17.384Z,62.80
2022-08-22T21:46:46.798Z,62.80
2022-08-22T21:49:22.543Z,62.40
2022-08-22T21:51:51.203Z,61.50
2022-08-22T21:54:41.042Z,61.30
2022-08-22T21:57:19.160Z,61.40
2022-08-22T21:59:52.164Z,61.60
2022-08-22T22:02:37.145Z,62.40
2022-08-22T22:05:09.352Z,61.20
2022-08-22T22:07:38.855Z,59.20
2022-08-22T22:10:08.496Z,59.30
2022-08-22T22:12:36.555Z,59.20
2022-08-22T22:15:05.007Z,59.20
2022-08-22T22:17:34.399Z,58.50
2022-08-22T22:20:02.494Z,58.10
2022-08-22T22:22:30.492Z,57.80
2022-08-22T22:24:58.511Z,57.50
2022-08-22T22:27:26.484Z,57.70
2022-08-22T22:29:54.503Z,58.00
2022-08-22T22:32:22.587Z,60.40
2022-08-22T22:34:52.041Z,64.00
2022-08-22T22:37:20.592Z,65.30
2022-08-22T22:39:48.806Z,67.00
2022-08-22T22:42:16.975Z,67.90
2022-08-22T22:44:47.556Z,68.50
2022-08-22T22:47:15.739Z,69.80
2022-08-22T22:49:44.767Z,69.20
2022-08-22T22:52:14.101Z,68.60
2022-08-22T22:54:42.068Z,69.00
2022-08-22T22:57:12.345Z,68.20
2022-08-22T22:59:41.480Z,68.10
2022-08-22T23:02:13.065Z,67.90
2022-08-22T23:04:43.459Z,65.60
2022-08-22T23:07:14.505Z,63.40
2022-08-22T23:09:45.101Z,64.30
2022-08-22T23:12:14.529Z,64.60
2022-08-22T23:14:42.990Z,64.20
2022-08-22T23:17:11.074Z,64.50
2022-08-22T23:19:39.249Z,65.40
2022-08-22T23:22:08.961Z,65.80
2022-08-22T23:24:39.901Z,64.90
2022-08-22T23:27:08.900Z,62.60
2022-08-22T23:29:37.367Z,60.80
2022-08-22T23:32:06.102Z,61.40
2022-08-22T23:34:37.147Z,62.80
2022-08-22T23:37:06.953Z,63.10
2022-08-22T23:39:38.106Z,64.20
2022-08-22T23:42:08.833Z,64.50
2022-08-22T23:44:39.666Z,65.30
2022-08-22T23:47:08.962Z,65.10
2022-08-22T23:49:38.171Z,65.20
2022-08-22T23:52:07.795Z,63.30
2022-08-22T23:54:36.002Z,63.50
2022-08-22T23:57:11.967Z,63.90
2022-08-22T23:59:46.502Z,64.80
